sensor_id;sensor_type;location;lat;lon;timestamp;pressure;altitude;pressure_sealevel;temperature;humidity
34742;BME280;20968;42.696;23.360;2023-03-13T00:00:17;95501.41;;;4.90;50.07
34742;BME280;20968;42.696;23.360;2023-03-13T00:02:43;95501.41;;;4.90;49.89
34742;BME280;20968;42.696;23.360;2023-03-13T00:05:10;95506.09;;;4.89;49.59
34742;BME280;20968;42.696;23.360;2023-03-13T00:07:36;95483.56;;;4.73;49.30
34742;BME280;20968;42.696;23.360;2023-03-13T00:10:02;95497.66;;;4.71;49.89
34742;BME280;20968;42.696;23.360;2023-03-13T00:12:28;95507.06;;;4.83;49.29
34742;BME280;20968;42.696;23.360;2023-03-13T00:14:54;95505.28;;;4.76;49.65
34742;BME280;20968;42.696;23.360;2023-03-13T00:17:19;95504.00;;;4.81;49.79
34742;BME280;20968;42.696;23.360;2023-03-13T00:19:45;95506.50;;;4.88;49.54
34742;BME280;20968;42.696;23.360;2023-03-13T00:22:10;95511.53;;;4.77;49.43
34742;BME280;20968;42.696;23.360;2023-03-13T00:24:36;95507.59;;;4.78;49.89
34742;BME280;20968;42.696;23.360;2023-03-13T00:27:01;95516.44;;;4.82;49.98
34742;BME280;20968;42.696;23.360;2023-03-13T00:29:31;95515.25;;;4.83;49.85
34742;BME280;20968;42.696;23.360;2023-03-13T00:31:57;95516.00;;;4.83;49.79
34742;BME280;20968;42.696;23.360;2023-03-13T00:34:22;95517.44;;;4.88;50.02
34742;BME280;20968;42.696;23.360;2023-03-13T00:36:50;95517.13;;;4.86;50.19
34742;BME280;20968;42.696;23.360;2023-03-13T00:39:16;95513.31;;;4.96;49.91
34742;BME280;20968;42.696;23.360;2023-03-13T00:41:41;95505.22;;;4.92;49.36
34742;BME280;20968;42.696;23.360;2023-03-13T00:44:08;95520.19;;;5.00;49.15
34742;BME280;20968;42.696;23.360;2023-03-13T00:46:33;95522.91;;;5.00;49.46
34742;BME280;20968;42.696;23.360;2023-03-13T00:48:59;95518.56;;;5.03;49.58
34742;BME280;20968;42.696;23.360;2023-03-13T00:51:25;95511.13;;;4.91;49.12
34742;BME280;20968;42.696;23.360;2023-03-13T00:53:52;95514.50;;;4.95;49.51
34742;BME280;20968;42.696;23.360;2023-03-13T00:56:19;95511.13;;;4.91;49.62
34742;BME280;20968;42.696;23.360;2023-03-13T00:58:46;95500.50;;;4.80;49.20
34742;BME280;20968;42.696;23.360;2023-03-13T01:01:23;95514.66;;;4.75;49.56
34742;BME280;20968;42.696;23.360;2023-03-13T01:03:51;95509.31;;;4.72;49.76
34742;BME280;20968;42.696;23.360;2023-03-13T01:06:20;95507.78;;;4.71;49.83
34742;BME280;20968;42.696;23.360;2023-03-13T01:08:46;95503.31;;;4.64;50.39
34742;BME280;20968;42.696;23.360;2023-03-13T01:11:15;95512.47;;;4.70;50.76
34742;BME280;20968;42.696;23.360;2023-03-13T01:13:40;95505.50;;;4.69;49.74
34742;BME280;20968;42.696;23.360;2023-03-13T01:16:12;95507.59;;;4.78;50.57
34742;BME280;20968;42.696;23.360;2023-03-13T01:18:40;95497.09;;;4.76;50.27
34742;BME280;20968;42.696;23.360;2023-03-13T01:21:06;95503.03;;;4.87;49.78
34742;BME280;20968;42.696;23.360;2023-03-13T01:23:32;95498.81;;;4.99;50.02
34742;BME280;20968;42.696;23.360;2023-03-13T01:25:58;95504.38;;;5.08;50.03
34742;BME280;20968;42.696;23.360;2023-03-13T01:28:24;95504.06;;;5.18;50.12
34742;BME280;20968;42.696;23.360;2023-03-13T01:30:50;95515.88;;;5.28;49.97
34742;BME280;20968;42.696;23.360;2023-03-13T01:33:16;95512.50;;;5.24;48.44
34742;BME280;20968;42.696;23.360;2023-03-13T01:35:41;95523.59;;;5.29;49.16
34742;BME280;20968;42.696;23.360;2023-03-13T01:38:07;95514.00;;;5.25;48.31
34742;BME280;20968;42.696;23.360;2023-03-13T01:40:45;95516.72;;;5.25;49.03
34742;BME280;20968;42.696;23.360;2023-03-13T01:43:18;95532.03;;;5.35;49.19
34742;BME280;20968;42.696;23.360;2023-03-13T01:46:00;95521.44;;;5.37;49.02
34742;BME280;20968;42.696;23.360;2023-03-13T01:50:56;95528.22;;;5.44;49.01
34742;BME280;20968;42.696;23.360;2023-03-13T01:53:24;95541.31;;;5.49;49.82
34742;BME280;20968;42.696;23.360;2023-03-13T01:55:51;95532.91;;;5.44;49.39
34742;BME280;20968;42.696;23.360;2023-03-13T01:58:18;95527.75;;;5.34;50.01
34742;BME280;20968;42.696;23.360;2023-03-13T02:00:44;95519.91;;;5.36;50.56
34742;BME280;20968;42.696;23.360;2023-03-13T02:03:13;95538.69;;;5.34;50.54
34742;BME280;20968;42.696;23.360;2023-03-13T02:05:41;95536.16;;;5.27;50.47
34742;BME280;20968;42.696;23.360;2023-03-13T02:08:24;95529.41;;;5.31;50.97
34742;BME280;20968;42.696;23.360;2023-03-13T02:11:00;95521.88;;;5.23;50.68
34742;BME280;20968;42.696;23.360;2023-03-13T02:13:28;95537.81;;;5.24;50.58
34742;BME280;20968;42.696;23.360;2023-03-13T02:15:54;95539.00;;;5.23;51.18
34742;BME280;20968;42.696;23.360;2023-03-13T02:18:20;95544.78;;;5.25;51.35
34742;BME280;20968;42.696;23.360;2023-03-13T02:20:46;95538.34;;;5.19;51.75
34742;BME280;20968;42.696;23.360;2023-03-13T02:23:32;95552.75;;;5.20;51.36
34742;BME280;20968;42.696;23.360;2023-03-13T02:25:59;95553.31;;;5.15;51.39
34742;BME280;20968;42.696;23.360;2023-03-13T02:28:30;95551.75;;;5.14;51.86
34742;BME280;20968;42.696;23.360;2023-03-13T02:30:58;95557.66;;;5.12;51.30
34742;BME280;20968;42.696;23.360;2023-03-13T02:33:29;95566.69;;;5.09;51.94
34742;BME280;20968;42.696;23.360;2023-03-13T02:35:57;95569.09;;;5.07;51.97
34742;BME280;20968;42.696;23.360;2023-03-13T02:38:26;95565.63;;;5.07;51.41
34742;BME280;20968;42.696;23.360;2023-03-13T02:40:53;95579.25;;;5.07;51.82
34742;BME280;20968;42.696;23.360;2023-03-13T02:43:25;95591.38;;;5.06;51.47
34742;BME280;20968;42.696;23.360;2023-03-13T02:48:37;95598.22;;;4.98;52.41
34742;BME280;20968;42.696;23.360;2023-03-13T02:51:07;95604.84;;;4.97;52.82
34742;BME280;20968;42.696;23.360;2023-03-13T02:53:36;95608.03;;;4.95;52.06
34742;BME280;20968;42.696;23.360;2023-03-13T02:56:03;95595.88;;;4.84;52.75
34742;BME280;20968;42.696;23.360;2023-03-13T02:58:37;95603.97;;;4.87;52.83
34742;BME280;20968;42.696;23.360;2023-03-13T03:01:02;95602.41;;;4.86;53.28
34742;BME280;20968;42.696;23.360;2023-03-13T03:03:33;95604.41;;;4.86;53.19
34742;BME280;20968;42.696;23.360;2023-03-13T03:05:59;95600.78;;;4.89;53.34
34742;BME280;20968;42.696;23.360;2023-03-13T03:08:24;95587.00;;;4.80;52.86
34742;BME280;20968;42.696;23.360;2023-03-13T03:10:50;95591.72;;;4.79;53.35
34742;BME280;20968;42.696;23.360;2023-03-13T03:13:15;95593.50;;;4.86;52.97
34742;BME280;20968;42.696;23.360;2023-03-13T03:15:40;95599.44;;;4.81;53.77
34742;BME280;20968;42.696;23.360;2023-03-13T03:18:06;95614.53;;;4.85;52.56
34742;BME280;20968;42.696;23.360;2023-03-13T03:20:31;95609.50;;;4.84;52.31
34742;BME280;20968;42.696;23.360;2023-03-13T03:22:57;95621.25;;;4.81;52.36
34742;BME280;20968;42.696;23.360;2023-03-13T03:25:22;95618.97;;;4.79;53.06
34742;BME280;20968;42.696;23.360;2023-03-13T03:27:47;95633.06;;;4.78;52.68
34742;BME280;20968;42.696;23.360;2023-03-13T03:30:14;95631.53;;;4.77;51.84
34742;BME280;20968;42.696;23.360;2023-03-13T03:32:39;95631.94;;;4.75;52.25
34742;BME280;20968;42.696;23.360;2023-03-13T03:35:05;95634.00;;;4.71;52.51
34742;BME280;20968;42.696;23.360;2023-03-13T03:37:31;95630.47;;;4.71;52.57
34742;BME280;20968;42.696;23.360;2023-03-13T03:39:56;95631.00;;;4.66;52.53
34742;BME280;20968;42.696;23.360;2023-03-13T03:42:22;95638.91;;;4.76;52.93
34742;BME280;20968;42.696;23.360;2023-03-13T03:44:47;95637.75;;;4.61;53.00
34742;BME280;20968;42.696;23.360;2023-03-13T03:47:13;95669.09;;;4.69;52.68
34742;BME280;20968;42.696;23.360;2023-03-13T03:49:39;95679.56;;;4.71;52.36
34742;BME280;20968;42.696;23.360;2023-03-13T03:52:05;95672.09;;;4.59;52.22
34742;BME280;20968;42.696;23.360;2023-03-13T03:54:31;95668.78;;;4.52;52.76
34742;BME280;20968;42.696;23.360;2023-03-13T03:56:56;95678.91;;;4.51;52.57
34742;BME280;20968;42.696;23.360;2023-03-13T03:59:22;95670.28;;;4.53;52.52
34742;BME280;20968;42.696;23.360;2023-03-13T04:01:48;95681.63;;;4.51;52.90
34742;BME280;20968;42.696;23.360;2023-03-13T04:04:14;95687.00;;;4.55;52.97
34742;BME280;20968;42.696;23.360;2023-03-13T04:06:39;95675.44;;;4.51;53.62
34742;BME280;20968;42.696;23.360;2023-03-13T04:09:04;95685.06;;;4.55;53.20
34742;BME280;20968;42.696;23.360;2023-03-13T04:11:30;95675.75;;;4.53;53.20
34742;BME280;20968;42.696;23.360;2023-03-13T04:13:55;95698.06;;;4.63;53.05
34742;BME280;20968;42.696;23.360;2023-03-13T04:16:21;95711.28;;;4.65;53.43
34742;BME280;20968;42.696;23.360;2023-03-13T04:18:48;95698.44;;;4.65;53.09
34742;BME280;20968;42.696;23.360;2023-03-13T04:21:13;95700.09;;;4.59;53.56
34742;BME280;20968;42.696;23.360;2023-03-13T04:23:39;95710.25;;;4.59;53.66
34742;BME280;20968;42.696;23.360;2023-03-13T04:26:04;95708.53;;;4.49;53.51
34742;BME280;20968;42.696;23.360;2023-03-13T04:28:29;95708.63;;;4.46;53.96
34742;BME280;20968;42.696;23.360;2023-03-13T04:30:55;95707.78;;;4.33;53.91
34742;BME280;20968;42.696;23.360;2023-03-13T04:33:23;95720.56;;;4.36;53.87
34742;BME280;20968;42.696;23.360;2023-03-13T04:35:49;95715.03;;;4.39;53.99
34742;BME280;20968;42.696;23.360;2023-03-13T04:38:14;95725.84;;;4.43;54.33
34742;BME280;20968;42.696;23.360;2023-03-13T04:40:39;95728.97;;;4.41;53.62
34742;BME280;20968;42.696;23.360;2023-03-13T04:43:05;95731.47;;;4.36;54.02
34742;BME280;20968;42.696;23.360;2023-03-13T04:45:30;95735.47;;;4.31;53.23
34742;BME280;20968;42.696;23.360;2023-03-13T04:47:55;95740.22;;;4.27;53.52
34742;BME280;20968;42.696;23.360;2023-03-13T04:50:21;95754.19;;;4.29;54.37
34742;BME280;20968;42.696;23.360;2023-03-13T04:52:46;95753.47;;;4.25;53.81
34742;BME280;20968;42.696;23.360;2023-03-13T04:55:12;95752.19;;;4.14;54.06
34742;BME280;20968;42.696;23.360;2023-03-13T04:57:37;95744.38;;;4.16;54.34
34742;BME280;20968;42.696;23.360;2023-03-13T05:00:04;95745.97;;;4.13;54.50
34742;BME280;20968;42.696;23.360;2023-03-13T05:02:32;95764.91;;;4.20;55.07
34742;BME280;20968;42.696;23.360;2023-03-13T05:04:57;95763.97;;;4.27;54.97
34742;BME280;20968;42.696;23.360;2023-03-13T05:07:23;95764.94;;;4.36;54.91
34742;BME280;20968;42.696;23.360;2023-03-13T05:09:48;95756.59;;;4.43;54.81
34742;BME280;20968;42.696;23.360;2023-03-13T05:12:14;95741.44;;;4.42;54.46
34742;BME280;20968;42.696;23.360;2023-03-13T05:14:40;95761.97;;;4.62;54.94
34742;BME280;20968;42.696;23.360;2023-03-13T05:17:05;95758.81;;;4.64;55.89
34742;BME280;20968;42.696;23.360;2023-03-13T05:19:31;95762.94;;;6.29;68.05
34742;BME280;20968;42.696;23.360;2023-03-13T05:21:56;95771.41;;;7.65;62.50
34742;BME280;20968;42.696;23.360;2023-03-13T05:27:34;95790.19;;;9.30;56.81
34742;BME280;20968;42.696;23.360;2023-03-13T05:29:59;95784.44;;;9.55;56.07
34742;BME280;20968;42.696;23.360;2023-03-13T05:32:25;95795.75;;;9.75;50.34
34742;BME280;20968;42.696;23.360;2023-03-13T05:34:50;95778.91;;;9.37;46.94
34742;BME280;20968;42.696;23.360;2023-03-13T05:37:16;95795.59;;;9.03;44.81
34742;BME280;20968;42.696;23.360;2023-03-13T05:39:41;95792.69;;;8.67;45.45
34742;BME280;20968;42.696;23.360;2023-03-13T05:42:06;95793.13;;;8.36;45.48
34742;BME280;20968;42.696;23.360;2023-03-13T05:44:33;95791.06;;;8.06;45.81
34742;BME280;20968;42.696;23.360;2023-03-13T05:46:58;95785.91;;;7.86;45.33
34742;BME280;20968;42.696;23.360;2023-03-13T05:49:24;95800.19;;;7.81;45.74
34742;BME280;20968;42.696;23.360;2023-03-13T05:51:49;95800.03;;;7.64;45.82
34742;BME280;20968;42.696;23.360;2023-03-13T05:54:14;95804.69;;;7.42;46.26
34742;BME280;20968;42.696;23.360;2023-03-13T05:56:40;95818.72;;;7.44;46.53
34742;BME280;20968;42.696;23.360;2023-03-13T05:59:05;95827.84;;;7.28;46.71
34742;BME280;20968;42.696;23.360;2023-03-13T06:01:31;95809.03;;;7.05;47.58
34742;BME280;20968;42.696;23.360;2023-03-13T06:03:59;95802.03;;;6.80;47.81
34742;BME280;20968;42.696;23.360;2023-03-13T06:06:25;95810.88;;;6.84;48.19
34742;BME280;20968;42.696;23.360;2023-03-13T06:08:51;95802.59;;;6.75;48.72
34742;BME280;20968;42.696;23.360;2023-03-13T06:11:17;95820.75;;;6.81;49.22
34742;BME280;20968;42.696;23.360;2023-03-13T06:13:43;95809.38;;;6.70;48.96
34742;BME280;20968;42.696;23.360;2023-03-13T06:16:08;95810.25;;;6.92;48.65
34742;BME280;20968;42.696;23.360;2023-03-13T06:18:35;95812.22;;;6.79;49.26
34742;BME280;20968;42.696;23.360;2023-03-13T06:21:01;95823.38;;;6.85;48.22
34742;BME280;20968;42.696;23.360;2023-03-13T06:23:27;95822.16;;;6.86;48.39
34742;BME280;20968;42.696;23.360;2023-03-13T06:25:53;95823.25;;;6.88;47.96
34742;BME280;20968;42.696;23.360;2023-03-13T06:28:18;95824.47;;;6.99;47.89
34742;BME280;20968;42.696;23.360;2023-03-13T06:30:44;95819.22;;;7.05;48.55
34742;BME280;20968;42.696;23.360;2023-03-13T06:33:09;95812.66;;;7.02;47.49
34742;BME280;20968;42.696;23.360;2023-03-13T06:35:38;95809.03;;;7.05;47.46
34742;BME280;20968;42.696;23.360;2023-03-13T06:38:04;95792.28;;;7.03;46.99
34742;BME280;20968;42.696;23.360;2023-03-13T06:40:29;95795.44;;;7.14;47.08
34742;BME280;20968;42.696;23.360;2023-03-13T06:42:55;95799.50;;;7.10;48.05
34742;BME280;20968;42.696;23.360;2023-03-13T06:45:20;95801.81;;;7.11;47.82
34742;BME280;20968;42.696;23.360;2023-03-13T06:47:46;95805.63;;;7.26;46.18
34742;BME280;20968;42.696;23.360;2023-03-13T06:50:11;95803.50;;;7.30;47.04
34742;BME280;20968;42.696;23.360;2023-03-13T06:52:37;95801.97;;;7.29;45.24
34742;BME280;20968;42.696;23.360;2023-03-13T06:55:03;95812.75;;;7.24;46.27
34742;BME280;20968;42.696;23.360;2023-03-13T06:57:28;95796.59;;;7.38;47.21
34742;BME280;20968;42.696;23.360;2023-03-13T06:59:54;95805.72;;;7.35;46.80
34742;BME280;20968;42.696;23.360;2023-03-13T07:02:19;95809.50;;;7.50;47.89
34742;BME280;20968;42.696;23.360;2023-03-13T07:04:45;95795.81;;;7.50;46.81
34742;BME280;20968;42.696;23.360;2023-03-13T07:07:11;95803.34;;;7.59;45.61
34742;BME280;20968;42.696;23.360;2023-03-13T07:09:36;95798.56;;;7.50;46.01
34742;BME280;20968;42.696;23.360;2023-03-13T07:12:02;95794.66;;;7.60;46.00
34742;BME280;20968;42.696;23.360;2023-03-13T07:14:28;95801.50;;;7.77;45.64
34742;BME280;20968;42.696;23.360;2023-03-13T07:16:54;95790.09;;;7.78;46.51
34742;BME280;20968;42.696;23.360;2023-03-13T07:19:19;95799.19;;;7.88;45.11
34742;BME280;20968;42.696;23.360;2023-03-13T07:21:45;95784.63;;;7.78;45.06
34742;BME280;20968;42.696;23.360;2023-03-13T07:24:14;95800.75;;;7.98;44.67
34742;BME280;20968;42.696;23.360;2023-03-13T07:26:39;95793.81;;;8.06;45.63
34742;BME280;20968;42.696;23.360;2023-03-13T07:29:05;95797.66;;;8.08;44.64
34742;BME280;20968;42.696;23.360;2023-03-13T07:31:30;95800.34;;;8.21;44.63
34742;BME280;20968;42.696;23.360;2023-03-13T07:33:58;95801.00;;;8.25;45.35
34742;BME280;20968;42.696;23.360;2023-03-13T07:36:24;95793.38;;;8.29;44.84
34742;BME280;20968;42.696;23.360;2023-03-13T07:38:50;95794.84;;;8.42;44.49
34742;BME280;20968;42.696;23.360;2023-03-13T07:41:16;95800.59;;;8.56;45.66
34742;BME280;20968;42.696;23.360;2023-03-13T07:43:42;95806.59;;;8.43;44.69
34742;BME280;20968;42.696;23.360;2023-03-13T07:46:11;95801.34;;;8.36;44.78
34742;BME280;20968;42.696;23.360;2023-03-13T07:48:39;95794.97;;;8.39;44.34
34742;BME280;20968;42.696;23.360;2023-03-13T07:51:07;95804.28;;;8.62;44.99
34742;BME280;20968;42.696;23.360;2023-03-13T07:56:31;95809.78;;;9.02;43.70
34742;BME280;20968;42.696;23.360;2023-03-13T07:58:57;95796.25;;;9.16;43.24
34742;BME280;20968;42.696;23.360;2023-03-13T08:01:29;95789.25;;;9.24;43.63
34742;BME280;20968;42.696;23.360;2023-03-13T08:03:55;95784.97;;;9.23;43.82
34742;BME280;20968;42.696;23.360;2023-03-13T08:06:40;95791.53;;;9.26;42.30
34742;BME280;20968;42.696;23.360;2023-03-13T08:09:06;95784.69;;;9.30;42.22
34742;BME280;20968;42.696;23.360;2023-03-13T08:11:32;95769.72;;;9.31;43.68
34742;BME280;20968;42.696;23.360;2023-03-13T08:13:57;95772.53;;;9.49;43.39
34742;BME280;20968;42.696;23.360;2023-03-13T08:16:42;95780.03;;;9.75;42.18
34742;BME280;20968;42.696;23.360;2023-03-13T08:19:26;95767.34;;;9.87;41.92
34742;BME280;20968;42.696;23.360;2023-03-13T08:21:58;95773.91;;;10.07;41.30
34742;BME280;20968;42.696;23.360;2023-03-13T08:24:31;95780.78;;;9.94;41.10
34742;BME280;20968;42.696;23.360;2023-03-13T08:26:57;95781.41;;;9.98;41.06
34742;BME280;20968;42.696;23.360;2023-03-13T08:29:22;95781.06;;;9.96;41.76
34742;BME280;20968;42.696;23.360;2023-03-13T08:31:49;95779.56;;;10.12;41.95
34742;BME280;20968;42.696;23.360;2023-03-13T08:34:17;95783.38;;;10.15;40.57
34742;BME280;20968;42.696;23.360;2023-03-13T08:36:42;95798.53;;;10.19;40.23
34742;BME280;20968;42.696;23.360;2023-03-13T08:39:13;95784.00;;;10.28;40.26
34742;BME280;20968;42.696;23.360;2023-03-13T08:41:39;95788.25;;;10.38;41.19
34742;BME280;20968;42.696;23.360;2023-03-13T08:44:11;95792.34;;;10.51;39.75
34742;BME280;20968;42.696;23.360;2023-03-13T08:46:37;95786.03;;;10.69;39.97
34742;BME280;20968;42.696;23.360;2023-03-13T08:49:04;95779.47;;;10.57;38.82
34742;BME280;20968;42.696;23.360;2023-03-13T08:51:33;95788.06;;;10.59;39.74
34742;BME280;20968;42.696;23.360;2023-03-13T08:54:05;95783.94;;;10.55;40.67
34742;BME280;20968;42.696;23.360;2023-03-13T08:56:31;95765.88;;;10.63;40.22
34742;BME280;20968;42.696;23.360;2023-03-13T08:58:59;95762.28;;;10.80;39.02
34742;BME280;20968;42.696;23.360;2023-03-13T09:01:28;95771.16;;;10.84;39.41
34742;BME280;20968;42.696;23.360;2023-03-13T09:03:55;95777.22;;;10.97;38.96
34742;BME280;20968;42.696;23.360;2023-03-13T09:06:21;95782.84;;;11.02;38.00
34742;BME280;20968;42.696;23.360;2023-03-13T09:08:47;95778.34;;;10.82;38.43
34742;BME280;20968;42.696;23.360;2023-03-13T09:11:15;95776.06;;;10.80;37.86
34742;BME280;20968;42.696;23.360;2023-03-13T09:13:43;95769.34;;;10.72;38.84
34742;BME280;20968;42.696;23.360;2023-03-13T09:16:15;95768.09;;;10.82;38.28
34742;BME280;20968;42.696;23.360;2023-03-13T09:18:42;95760.38;;;10.95;38.44
34742;BME280;20968;42.696;23.360;2023-03-13T09:21:11;95761.06;;;11.13;40.07
34742;BME280;20968;42.696;23.360;2023-03-13T09:23:39;95763.00;;;11.22;38.25
34742;BME280;20968;42.696;23.360;2023-03-13T09:26:04;95745.13;;;11.41;36.96
34742;BME280;20968;42.696;23.360;2023-03-13T09:28:30;95768.03;;;11.56;37.54
34742;BME280;20968;42.696;23.360;2023-03-13T09:31:11;95767.75;;;11.77;38.69
34742;BME280;20968;42.696;23.360;2023-03-13T09:33:37;95769.56;;;11.80;37.18
34742;BME280;20968;42.696;23.360;2023-03-13T09:36:03;95771.31;;;11.92;37.20
34742;BME280;20968;42.696;23.360;2023-03-13T09:38:31;95775.53;;;12.02;37.91
34742;BME280;20968;42.696;23.360;2023-03-13T09:41:03;95763.44;;;12.14;37.28
34742;BME280;20968;42.696;23.360;2023-03-13T09:43:50;95762.88;;;12.24;36.55
34742;BME280;20968;42.696;23.360;2023-03-13T09:46:22;95765.28;;;12.31;36.85
34742;BME280;20968;42.696;23.360;2023-03-13T09:48:54;95766.94;;;12.00;35.02
34742;BME280;20968;42.696;23.360;2023-03-13T09:51:34;95754.88;;;11.74;36.39
34742;BME280;20968;42.696;23.360;2023-03-13T09:57:00;95748.72;;;11.79;37.11
34742;BME280;20968;42.696;23.360;2023-03-13T10:07:32;95742.81;;;12.52;35.63
34742;BME280;20968;42.696;23.360;2023-03-13T10:09:59;95738.91;;;12.59;35.46
34742;BME280;20968;42.696;23.360;2023-03-13T10:12:36;95728.03;;;12.84;35.77
34742;BME280;20968;42.696;23.360;2023-03-13T10:18:16;95717.22;;;13.15;34.73
34742;BME280;20968;42.696;23.360;2023-03-13T10:20:43;95708.78;;;13.24;36.00
34742;BME280;20968;42.696;23.360;2023-03-13T10:23:24;95712.47;;;13.55;35.73
34742;BME280;20968;42.696;23.360;2023-03-13T10:25:51;95696.06;;;13.52;35.47
34742;BME280;20968;42.696;23.360;2023-03-13T10:28:17;95696.63;;;13.56;35.06
34742;BME280;20968;42.696;23.360;2023-03-13T10:30:53;95697.66;;;13.78;34.71
34742;BME280;20968;42.696;23.360;2023-03-13T10:33:26;95683.78;;;13.98;33.91
34742;BME280;20968;42.696;23.360;2023-03-13T10:36:04;95687.28;;;14.18;33.94
34742;BME280;20968;42.696;23.360;2023-03-13T10:38:44;95688.28;;;14.15;32.63
34742;BME280;20968;42.696;23.360;2023-03-13T10:41:28;95691.75;;;14.10;33.46
34742;BME280;20968;42.696;23.360;2023-03-13T10:44:03;95674.00;;;14.02;33.85
34742;BME280;20968;42.696;23.360;2023-03-13T10:46:34;95675.69;;;14.14;32.83
34742;BME280;20968;42.696;23.360;2023-03-13T10:49:13;95679.75;;;14.19;33.51
34742;BME280;20968;42.696;23.360;2023-03-13T10:51:39;95661.44;;;14.27;33.59
34742;BME280;20968;42.696;23.360;2023-03-13T10:54:22;95671.72;;;14.52;33.64
34742;BME280;20968;42.696;23.360;2023-03-13T10:56:49;95665.03;;;14.33;32.49
34742;BME280;20968;42.696;23.360;2023-03-13T10:59:25;95657.59;;;14.19;33.11
34742;BME280;20968;42.696;23.360;2023-03-13T11:01:59;95654.63;;;14.02;33.49
34742;BME280;20968;42.696;23.360;2023-03-13T11:04:35;95647.38;;;14.30;33.85
34742;BME280;20968;42.696;23.360;2023-03-13T11:07:40;95647.41;;;14.36;33.04
34742;BME280;20968;42.696;23.360;2023-03-13T11:12:46;95633.34;;;15.12;40.37
34742;BME280;20968;42.696;23.360;2023-03-13T11:15:15;95629.84;;;15.75;43.41
34742;BME280;20968;42.696;23.360;2023-03-13T11:17:47;95631.16;;;15.96;32.32
34742;BME280;20968;42.696;23.360;2023-03-13T11:20:27;95627.91;;;15.97;32.12
34742;BME280;20968;42.696;23.360;2023-03-13T11:28:12;95616.25;;;15.93;31.02
34742;BME280;20968;42.696;23.360;2023-03-13T11:38:48;95598.19;;;15.45;31.11
34742;BME280;20968;42.696;23.360;2023-03-13T11:41:27;95593.38;;;15.46;30.86
34742;BME280;20968;42.696;23.360;2023-03-13T11:44:15;95594.41;;;15.43;31.48
34742;BME280;20968;42.696;23.360;2023-03-13T11:52:28;95577.31;;;15.02;31.42
34742;BME280;20968;42.696;23.360;2023-03-13T12:00:33;95559.06;;;15.43;30.88
34742;BME280;20968;42.696;23.360;2023-03-13T12:05:53;95547.31;;;15.75;31.46
34742;BME280;20968;42.696;23.360;2023-03-13T12:11:12;95542.03;;;16.16;31.14
34742;BME280;20968;42.696;23.360;2023-03-13T12:13:48;95547.84;;;16.29;30.86
34742;BME280;20968;42.696;23.360;2023-03-13T12:16:24;95543.53;;;16.28;31.09
34742;BME280;20968;42.696;23.360;2023-03-13T12:18:51;95532.44;;;16.33;29.53
34742;BME280;20968;42.696;23.360;2023-03-13T12:24:24;95531.19;;;16.29;31.24
34742;BME280;20968;42.696;23.360;2023-03-13T12:26:59;95528.41;;;16.34;30.06
34742;BME280;20968;42.696;23.360;2023-03-13T12:32:13;95523.81;;;16.53;29.79
34742;BME280;20968;42.696;23.360;2023-03-13T12:35:00;95523.06;;;16.41;29.70
34742;BME280;20968;42.696;23.360;2023-03-13T12:43:31;95517.78;;;16.33;29.91
34742;BME280;20968;42.696;23.360;2023-03-13T12:56:40;95516.63;;;16.96;30.21
34742;BME280;20968;42.696;23.360;2023-03-13T12:59:20;95533.81;;;16.94;29.70
34742;BME280;20968;42.696;23.360;2023-03-13T13:01:49;95514.94;;;16.65;29.45
34742;BME280;20968;42.696;23.360;2023-03-13T13:04:26;95518.75;;;16.62;30.06
34742;BME280;20968;42.696;23.360;2023-03-13T13:07:00;95521.28;;;16.60;29.88
34742;BME280;20968;42.696;23.360;2023-03-13T13:09:32;95518.97;;;16.70;29.19
34742;BME280;20968;42.696;23.360;2023-03-13T13:12:22;95517.47;;;16.69;29.02
34742;BME280;20968;42.696;23.360;2023-03-13T13:19:53;95523.81;;;16.58;29.50
34742;BME280;20968;42.696;23.360;2023-03-13T13:32:44;95493.00;;;15.80;29.92
34742;BME280;20968;42.696;23.360;2023-03-13T13:40:38;95480.88;;;15.99;30.49
34742;BME280;20968;42.696;23.360;2023-03-13T13:43:05;95483.91;;;16.18;30.62
34742;BME280;20968;42.696;23.360;2023-03-13T13:45:59;95500.34;;;16.38;30.06
34742;BME280;20968;42.696;23.360;2023-03-13T13:53:47;95482.91;;;16.21;29.33
34742;BME280;20968;42.696;23.360;2023-03-13T13:56:34;95481.13;;;16.45;29.64
34742;BME280;20968;42.696;23.360;2023-03-13T13:59:19;95488.19;;;16.51;29.53
34742;BME280;20968;42.696;23.360;2023-03-13T14:01:50;95474.34;;;16.30;30.03
34742;BME280;20968;42.696;23.360;2023-03-13T14:04:46;95486.72;;;16.34;30.36
34742;BME280;20968;42.696;23.360;2023-03-13T14:07:17;95488.72;;;16.44;29.93
34742;BME280;20968;42.696;23.360;2023-03-13T14:12:37;95482.63;;;16.57;30.14
34742;BME280;20968;42.696;23.360;2023-03-13T14:15:22;95468.69;;;16.62;30.51
34742;BME280;20968;42.696;23.360;2023-03-13T14:17:49;95481.03;;;16.72;30.01
34742;BME280;20968;42.696;23.360;2023-03-13T14:20:32;95465.84;;;16.79;30.03
34742;BME280;20968;42.696;23.360;2023-03-13T14:23:06;95474.66;;;16.88;29.69
34742;BME280;20968;42.696;23.360;2023-03-13T14:25:47;95462.31;;;16.78;29.73
34742;BME280;20968;42.696;23.360;2023-03-13T14:28:27;95473.66;;;16.91;29.48
34742;BME280;20968;42.696;23.360;2023-03-13T14:30:57;95460.28;;;16.84;28.92
34742;BME280;20968;42.696;23.360;2023-03-13T14:33:23;95463.06;;;16.84;28.96
34742;BME280;20968;42.696;23.360;2023-03-13T14:35:51;95459.31;;;16.65;29.41
34742;BME280;20968;42.696;23.360;2023-03-13T14:38:19;95457.81;;;16.64;29.96
34742;BME280;20968;42.696;23.360;2023-03-13T14:40:45;95464.88;;;16.71;30.14
34742;BME280;20968;42.696;23.360;2023-03-13T14:43:32;95460.56;;;16.75;29.86
34742;BME280;20968;42.696;23.360;2023-03-13T14:46:00;95466.06;;;16.86;29.37
34742;BME280;20968;42.696;23.360;2023-03-13T14:48:36;95464.41;;;16.56;28.62
34742;BME280;20968;42.696;23.360;2023-03-13T14:51:08;95466.47;;;16.34;29.11
34742;BME280;20968;42.696;23.360;2023-03-13T14:53:35;95464.44;;;16.18;29.18
34742;BME280;20968;42.696;23.360;2023-03-13T14:56:15;95457.91;;;16.04;30.33